Terminal Aerodrome Forecast
Issued by NWS

Home | Current Version | Previous Version | Text Only | Print | Product List | Glossary On
Versions: 1 2 3 4 5 6 7 8 9 10 11 12 13 14 15 16 17 18 19 20 21 22 23
000
FTUS41 KILN 071800 AAB
TAFLUK
TAF AMD
KLUK 071845Z 0719/0818 21012KT P6SM SCT025 BKN035
      TEMPO 0719/0720 BKN025
     FM072000 22012G23KT P6SM VCSH BKN025
      TEMPO 0721/0724 4SM TSRA BR SCT015 OVC025CB
     FM080000 24008KT 5SM -SHRA BR VCTS OVC035CB
     FM081000 26010KT 5SM -SHRA BR OVC028
     FM081400 28007KT P6SM VCSH OVC015=

USA.gov is the U.S. government's official web portal to all federal, state and local government web resources and services.